Time;durP1;ratioP1;P1;durP2;ratioP2;P2;SDS_P1;SDS_P2;PMS_P1;PMS_P2;Temp;Humidity;BMP_temperature;BMP_pressure;BME280_temperature;BME280_humidity;BME280_pressure;Samples;Min_cycle;Max_cycle;Signal;HPM_P1;HPM_P2
2023/02/11 00:00:35;;;;;;;13.07;9.70;;;9.10;81.10;;;;;;5119851;27;20072;-84
2023/02/11 00:03:01;;;;;;;12.52;9.90;;;9.10;81.10;;;;;;5120099;27;20027;-85
2023/02/11 00:05:27;;;;;;;14.52;9.98;;;9.10;81.00;;;;;;5136944;27;20109;-86
2023/02/11 00:07:53;;;;;;;15.25;10.75;;;9.10;81.00;;;;;;5119945;27;20570;-86
2023/02/11 00:10:19;;;;;;;13.85;9.65;;;9.10;81.00;;;;;;5119845;27;20050;-86
2023/02/11 00:12:44;;;;;;;13.52;9.48;;;9.20;81.10;;;;;;5136786;27;20124;-87
2023/02/11 00:15:10;;;;;;;12.93;9.35;;;9.10;81.00;;;;;;5136697;27;20027;-86
2023/02/11 00:17:36;;;;;;;11.85;9.35;;;9.10;81.00;;;;;;5119418;27;20046;-86
2023/02/11 00:20:02;;;;;;;12.57;8.90;;;9.10;81.00;;;;;;5137016;27;20027;-86
2023/02/11 00:22:28;;;;;;;11.50;8.85;;;9.20;81.00;;;;;;5128338;27;20126;-85
2023/02/11 00:24:55;;;;;;;11.38;8.45;;;9.20;81.00;;;;;;5082176;28;20028;-85
2023/02/11 00:27:21;;;;;;;10.65;7.95;;;9.10;81.00;;;;;;5098651;28;20047;-87
2023/02/11 00:29:47;;;;;;;10.07;7.93;;;9.10;81.00;;;;;;5099364;28;20110;-86
2023/02/11 00:32:13;;;;;;;11.18;7.70;;;9.10;81.00;;;;;;5098868;28;20435;-86
2023/02/11 00:34:39;;;;;;;11.77;8.15;;;9.20;81.00;;;;;;5115691;28;20064;-86
2023/02/11 00:37:05;;;;;;;10.95;8.30;;;9.20;81.00;;;;;;5098884;28;20028;-86
2023/02/11 00:39:31;;;;;;;10.48;7.63;;;9.20;81.00;;;;;;5081545;28;20026;-86
2023/02/11 00:41:57;;;;;;;10.00;7.45;;;9.20;81.00;;;;;;5098964;28;20089;-86
2023/02/11 00:44:22;;;;;;;11.55;7.95;;;9.20;81.00;;;;;;5082401;28;20027;-86
2023/02/11 00:46:51;;;;;;;10.02;7.22;;;9.20;81.00;;;;;;5116409;28;20103;-85
2023/02/11 00:49:17;;;;;;;10.55;7.47;;;9.20;81.00;;;;;;5098761;28;20024;-86
2023/02/11 00:51:45;;;;;;;8.40;6.45;;;9.20;81.00;;;;;;5115791;28;20038;-85
2023/02/11 00:54:11;;;;;;;8.82;6.80;;;9.20;81.00;;;;;;5099677;28;20475;-84
2023/02/11 00:56:38;;;;;;;8.35;6.55;;;9.20;81.00;;;;;;5098610;28;20032;-86
2023/02/11 00:59:03;;;;;;;8.25;6.13;;;9.20;81.00;;;;;;5115943;28;20046;-86
2023/02/11 01:01:29;;;;;;;9.20;6.53;;;9.20;81.00;;;;;;5116618;28;20407;-86
2023/02/11 01:03:55;;;;;;;8.45;5.82;;;9.20;81.00;;;;;;5098912;28;20030;-85
2023/02/11 01:06:22;;;;;;;8.27;6.38;;;9.20;80.90;;;;;;5082524;28;20027;-87
2023/02/11 01:08:48;;;;;;;9.65;6.53;;;9.20;80.90;;;;;;5099423;28;20030;-87
2023/02/11 01:11:19;;;;;;;9.18;6.53;;;9.20;80.90;;;;;;5101556;28;20107;-86
2023/02/11 01:13:46;;;;;;;8.70;5.97;;;9.20;81.00;;;;;;5120356;28;20024;-85
2023/02/11 01:16:13;;;;;;;8.25;6.15;;;9.20;80.90;;;;;;5115974;28;20034;-86
2023/02/11 01:18:40;;;;;;;8.88;6.03;;;9.20;80.90;;;;;;5098912;28;20035;-86
2023/02/11 01:21:06;;;;;;;8.25;6.20;;;9.20;81.00;;;;;;5098481;28;20023;-85
2023/02/11 01:23:32;;;;;;;10.13;6.93;;;9.20;80.90;;;;;;5116412;27;20062;-86
2023/02/11 01:25:58;;;;;;;7.68;6.03;;;9.20;80.90;;;;;;5135603;27;20035;-86
2023/02/11 01:28:29;;;;;;;7.38;5.78;;;9.20;80.90;;;;;;5119242;27;20038;-86
2023/02/11 01:30:55;;;;;;;7.38;5.45;;;9.20;81.00;;;;;;5118086;27;20069;-86
2023/02/11 01:33:22;;;;;;;8.43;5.68;;;9.20;80.90;;;;;;5136839;27;20032;-86
2023/02/11 01:35:48;;;;;;;7.70;5.65;;;9.20;81.00;;;;;;5118648;27;20443;-86
2023/02/11 01:38:21;;;;;;;8.88;5.70;;;9.20;80.90;;;;;;5135735;27;20060;-86
2023/02/11 01:40:55;;;;;;;7.93;5.30;;;9.20;81.00;;;;;;5136545;27;20045;-86
2023/02/11 01:43:23;;;;;;;6.40;5.40;;;9.20;81.00;;;;;;5136692;27;20028;-86
2023/02/11 01:46:13;;;;;;;7.57;5.55;;;9.20;80.90;;;;;;5136227;27;20386;-86
2023/02/11 01:48:47;;;;;;;7.90;5.57;;;9.20;81.00;;;;;;5135719;27;20019;-86
2023/02/11 01:51:19;;;;;;;6.53;4.97;;;9.20;81.00;;;;;;5135394;27;20031;-86
2023/02/11 01:59:23;;;;;;;6.32;4.10;;;9.20;81.00;;;;;;5135589;27;20467;-86
2023/02/11 02:01:56;;;;;;;6.20;4.30;;;9.20;81.00;;;;;;5134545;27;20022;-86
2023/02/11 02:04:30;;;;;;;7.07;4.78;;;9.20;81.10;;;;;;5135070;27;20103;-86
2023/02/11 02:07:07;;;;;;;8.15;4.85;;;9.20;81.00;;;;;;5134578;27;20034;-86
2023/02/11 02:09:40;;;;;;;7.50;4.80;;;9.20;81.00;;;;;;5135371;27;20039;-86
2023/02/11 02:12:06;;;;;;;6.13;4.88;;;9.20;81.00;;;;;;5135500;27;20049;-85
2023/02/11 02:14:32;;;;;;;6.35;4.90;;;9.20;81.00;;;;;;5134675;27;20469;-85
2023/02/11 02:16:58;;;;;;;6.03;4.38;;;9.20;81.60;;;;;;5134258;27;20031;-86
2023/02/11 02:19:38;;;;;;;7.00;4.32;;;9.20;81.00;;;;;;5117404;27;20379;-86
2023/02/11 02:22:50;;;;;;;8.30;4.82;;;9.20;81.10;;;;;;5134306;27;20096;-86
2023/02/11 02:25:16;;;;;;;7.40;4.35;;;9.20;81.10;;;;;;5071983;27;20065;-86
2023/02/11 02:27:51;;;;;;;7.93;4.72;;;9.20;81.00;;;;;;5117543;27;20027;-86
2023/02/11 02:30:32;;;;;;;6.53;4.22;;;9.20;81.00;;;;;;5133849;27;20027;-85
2023/02/11 02:33:40;;;;;;;5.93;4.13;;;9.20;81.00;;;;;;5134600;27;20470;-86
2023/02/11 02:36:28;;;;;;;5.82;4.07;;;9.20;81.10;;;;;;5109115;28;20092;-86
2023/02/11 02:39:07;;;;;;;6.40;4.05;;;9.20;81.00;;;;;;5134636;27;20119;-86
2023/02/11 02:41:35;;;;;;;5.40;4.00;;;9.20;81.00;;;;;;5134789;27;20035;-86
2023/02/11 02:44:01;;;;;;;6.10;3.95;;;9.20;81.00;;;;;;5135043;27;20043;-86
2023/02/11 02:46:30;;;;;;;6.30;4.90;;;9.20;81.00;;;;;;5134053;28;20509;-85
2023/02/11 02:48:57;;;;;;;6.55;4.63;;;9.20;81.00;;;;;;5116983;28;20019;-86
2023/02/11 02:51:44;;;;;;;6.30;4.57;;;9.20;81.00;;;;;;5137118;27;20034;-87
2023/02/11 02:54:10;;;;;;;6.72;4.85;;;9.20;81.10;;;;;;5138291;27;20031;-87
2023/02/11 02:56:43;;;;;;;5.13;3.85;;;9.20;81.00;;;;;;5121356;27;20034;-85
2023/02/11 02:59:09;;;;;;;6.43;4.20;;;9.20;81.00;;;;;;5138615;27;20126;-85
2023/02/11 03:02:00;;;;;;;5.38;4.07;;;9.20;81.00;;;;;;5139007;27;20051;-86
2023/02/11 03:04:42;;;;;;;5.53;4.07;;;9.20;81.10;;;;;;5122070;27;20035;-86
2023/02/11 03:07:29;;;;;;;5.82;4.10;;;9.20;81.00;;;;;;5138021;27;20032;-86
2023/02/11 03:10:18;;;;;;;5.13;3.42;;;9.20;81.10;;;;;;5138318;27;20023;-86
2023/02/11 03:12:46;;;;;;;5.65;4.18;;;9.20;81.10;;;;;;5138034;27;20027;-85
2023/02/11 03:15:13;;;;;;;5.45;4.30;;;9.20;81.00;;;;;;5121170;27;20455;-85
2023/02/11 03:17:44;;;;;;;5.85;3.90;;;9.20;81.00;;;;;;5138128;27;20023;-86
2023/02/11 03:20:14;;;;;;;5.30;3.60;;;9.20;81.10;;;;;;5138277;27;20027;-86
2023/02/11 03:22:55;;;;;;;6.10;4.03;;;9.20;81.10;;;;;;5137281;27;20111;-86
2023/02/11 03:25:26;;;;;;;5.45;3.88;;;9.20;81.10;;;;;;5121441;27;20083;-86
2023/02/11 03:28:11;;;;;;;5.45;3.70;;;9.20;81.10;;;;;;5138785;27;20019;-86
2023/02/11 03:30:42;;;;;;;5.43;4.20;;;9.20;81.10;;;;;;5137405;27;20039;-82
2023/02/11 03:33:21;;;;;;;4.93;3.60;;;9.20;81.10;;;;;;5137002;27;20035;-82
2023/02/11 03:35:55;;;;;;;5.78;3.90;;;9.20;81.10;;;;;;5136725;27;20039;-82
2023/02/11 03:38:27;;;;;;;5.13;3.63;;;9.20;81.10;;;;;;5136898;27;20023;-82
2023/02/11 03:40:55;;;;;;;5.68;3.90;;;9.20;81.00;;;;;;5136824;27;20046;-83
2023/02/11 03:43:45;;;;;;;5.78;3.95;;;9.20;81.00;;;;;;5136793;27;20111;-82
2023/02/11 03:46:14;;;;;;;5.13;3.78;;;9.20;81.10;;;;;;5119236;27;20471;-82
2023/02/11 03:48:52;;;;;;;5.20;3.78;;;9.20;81.00;;;;;;5136572;27;20023;-81
2023/02/11 03:51:20;;;;;;;5.70;3.72;;;9.20;81.10;;;;;;5136304;27;20023;-81
2023/02/11 03:53:49;;;;;;;5.78;3.78;;;9.20;81.10;;;;;;5136366;27;20463;-80
2023/02/11 03:56:20;;;;;;;5.10;3.92;;;9.20;81.10;;;;;;5136900;27;20451;-83
2023/02/11 03:58:47;;;;;;;5.28;3.80;;;9.20;81.10;;;;;;5137069;27;20092;-83
2023/02/11 04:01:14;;;;;;;6.43;3.95;;;9.20;81.10;;;;;;5136037;27;20023;-84
2023/02/11 04:03:39;;;;;;;5.80;4.47;;;9.10;81.10;;;;;;5118611;27;20035;-82
2023/02/11 04:06:06;;;;;;;5.57;4.00;;;9.20;81.10;;;;;;5118831;27;20034;-81
2023/02/11 04:08:32;;;;;;;5.60;4.10;;;9.10;81.10;;;;;;5135834;27;20020;-82
2023/02/11 04:10:58;;;;;;;5.10;4.05;;;9.20;81.10;;;;;;5135876;27;20035;-82
2023/02/11 04:13:23;;;;;;;5.50;3.72;;;9.10;81.10;;;;;;5101802;27;20387;-82
2023/02/11 04:15:49;;;;;;;6.22;3.83;;;9.20;81.80;;;;;;5118738;27;20027;-83
2023/02/11 04:18:15;;;;;;;5.00;3.92;;;9.10;81.10;;;;;;5135851;27;20028;-81
2023/02/11 04:20:41;;;;;;;6.05;4.20;;;9.20;81.10;;;;;;5135940;27;20036;-83
2023/02/11 04:23:06;;;;;;;5.35;3.97;;;9.20;81.10;;;;;;5115104;28;20062;-82
2023/02/11 04:25:32;;;;;;;5.60;3.83;;;9.20;81.10;;;;;;5098117;28;20059;-80
2023/02/11 04:27:58;;;;;;;6.20;3.85;;;9.20;81.10;;;;;;5132948;27;20421;-83
2023/02/11 04:30:24;;;;;;;5.40;3.88;;;9.10;81.10;;;;;;5097977;28;20535;-83
2023/02/11 04:32:49;;;;;;;6.32;4.22;;;9.20;81.10;;;;;;5132305;27;20028;-80
2023/02/11 04:35:15;;;;;;;5.57;4.28;;;9.20;81.10;;;;;;5115290;28;20071;-81
2023/02/11 04:37:41;;;;;;;7.15;4.50;;;9.20;81.10;;;;;;5115345;28;20368;-82
2023/02/11 04:40:07;;;;;;;5.25;4.00;;;9.20;81.10;;;;;;5115873;28;20040;-82
2023/02/11 04:42:33;;;;;;;6.28;4.45;;;9.20;81.10;;;;;;5116062;28;20024;-81
2023/02/11 04:44:59;;;;;;;5.28;3.75;;;9.20;81.10;;;;;;5080893;28;20373;-81
2023/02/11 04:47:24;;;;;;;5.53;4.03;;;9.20;81.10;;;;;;5132267;27;20440;-81
2023/02/11 04:49:50;;;;;;;5.35;3.95;;;9.20;81.10;;;;;;5097518;28;20396;-81
2023/02/11 04:52:16;;;;;;;6.05;4.00;;;9.20;81.10;;;;;;5114218;28;20399;-81
2023/02/11 04:54:41;;;;;;;6.28;4.32;;;9.20;81.10;;;;;;5114919;28;20070;-81
2023/02/11 04:57:07;;;;;;;6.63;4.00;;;9.20;81.10;;;;;;5116303;28;20406;-81
2023/02/11 04:59:33;;;;;;;6.45;3.90;;;9.20;81.10;;;;;;5116280;28;20422;-80
2023/02/11 05:01:59;;;;;;;7.85;4.60;;;9.20;81.10;;;;;;5114354;28;20112;-81
2023/02/11 05:04:24;;;;;;;6.03;3.75;;;9.20;81.10;;;;;;5114357;28;20036;-81
2023/02/11 05:06:50;;;;;;;8.57;4.60;;;9.20;81.10;;;;;;5114243;28;20027;-80
2023/02/11 05:09:16;;;;;;;5.70;3.95;;;9.20;81.10;;;;;;5080299;28;20523;-81
2023/02/11 05:11:42;;;;;;;5.18;3.88;;;9.20;81.10;;;;;;5097201;28;20122;-83
2023/02/11 05:14:08;;;;;;;6.15;4.13;;;9.20;81.10;;;;;;5096890;28;20511;-81
2023/02/11 05:16:34;;;;;;;5.32;3.70;;;9.20;81.10;;;;;;5114025;28;20154;-81
2023/02/11 05:19:00;;;;;;;6.53;4.50;;;9.20;81.10;;;;;;5097526;28;20023;-81
2023/02/11 05:21:26;;;;;;;6.38;4.35;;;9.20;81.10;;;;;;5130599;27;20049;-82
2023/02/11 05:23:51;;;;;;;6.60;4.78;;;9.20;81.10;;;;;;5080819;28;20032;-80
2023/02/11 05:26:17;;;;;;;6.28;4.40;;;9.20;81.10;;;;;;5113523;28;20459;-81
2023/02/11 05:28:43;;;;;;;6.15;4.50;;;9.20;81.10;;;;;;5114169;28;20077;-80
2023/02/11 05:31:10;;;;;;;5.85;4.43;;;9.20;81.10;;;;;;5097458;28;20050;-81
2023/02/11 05:33:36;;;;;;;6.25;4.30;;;9.20;81.20;;;;;;5113744;28;20031;-81
2023/02/11 05:36:05;;;;;;;6.75;4.32;;;9.20;81.10;;;;;;5115137;28;20035;-80
2023/02/11 05:38:32;;;;;;;5.93;4.45;;;9.20;81.10;;;;;;5113489;28;20098;-81
2023/02/11 05:40:58;;;;;;;6.03;3.88;;;9.20;81.10;;;;;;5096853;28;20036;-80
2023/02/11 05:43:24;;;;;;;5.65;4.43;;;9.20;81.10;;;;;;5080195;28;20035;-81
2023/02/11 05:45:50;;;;;;;6.78;4.57;;;9.20;81.10;;;;;;5096849;28;20134;-81
2023/02/11 05:48:16;;;;;;;6.88;5.22;;;9.20;81.10;;;;;;5113676;28;20102;-81
2023/02/11 05:50:42;;;;;;;6.30;4.22;;;9.20;81.10;;;;;;5079140;28;20031;-81
2023/02/11 05:53:08;;;;;;;6.18;4.90;;;9.20;81.10;;;;;;5096683;28;20027;-81
2023/02/11 05:55:34;;;;;;;5.82;4.35;;;9.20;81.10;;;;;;5096558;28;20028;-80
2023/02/11 05:58:00;;;;;;;5.85;4.43;;;9.20;81.10;;;;;;5096593;28;20460;-80
2023/02/11 06:00:26;;;;;;;6.88;4.72;;;9.20;81.10;;;;;;5113441;28;20035;-81
2023/02/11 06:02:51;;;;;;;6.68;4.70;;;9.20;81.10;;;;;;5096289;28;20027;-81
2023/02/11 06:05:17;;;;;;;6.43;4.43;;;9.20;81.00;;;;;;5096450;28;20035;-80
2023/02/11 06:07:43;;;;;;;6.95;5.10;;;9.20;81.10;;;;;;5096502;28;20431;-81
2023/02/11 06:10:09;;;;;;;6.88;4.90;;;9.20;81.10;;;;;;5113095;28;20089;-80
2023/02/11 06:12:36;;;;;;;7.55;4.78;;;9.20;81.10;;;;;;5096843;28;20119;-82
2023/02/11 06:15:03;;;;;;;6.30;5.00;;;9.20;81.10;;;;;;5096172;28;20077;-80
2023/02/11 06:17:32;;;;;;;6.93;4.85;;;9.20;81.10;;;;;;5096283;28;20042;-78
2023/02/11 06:20:03;;;;;;;6.05;4.97;;;9.20;81.10;;;;;;5096571;28;20028;-80
2023/02/11 06:22:29;;;;;;;7.13;4.82;;;9.20;81.10;;;;;;5112679;28;20076;-81
2023/02/11 06:24:55;;;;;;;5.97;4.53;;;9.20;81.10;;;;;;5078305;28;20127;-82
2023/02/11 06:27:21;;;;;;;7.10;5.18;;;9.20;81.00;;;;;;5095817;28;20031;-81
2023/02/11 06:29:47;;;;;;;6.03;4.53;;;9.20;81.00;;;;;;5096223;28;20189;-81
2023/02/11 06:32:13;;;;;;;7.18;5.15;;;9.20;81.00;;;;;;5112556;28;20028;-82
2023/02/11 06:34:39;;;;;;;6.30;4.97;;;9.20;81.00;;;;;;5113490;28;20024;-81
2023/02/11 06:37:05;;;;;;;7.65;5.45;;;9.20;81.00;;;;;;5095598;28;20080;-80
2023/02/11 06:39:31;;;;;;;7.18;5.15;;;9.20;81.00;;;;;;5079436;28;20019;-80
2023/02/11 06:41:57;;;;;;;7.30;5.60;;;9.20;81.00;;;;;;5095430;28;20031;-81
2023/02/11 06:44:23;;;;;;;6.95;5.57;;;9.20;81.00;;;;;;5112678;28;20099;-81
2023/02/11 06:46:48;;;;;;;7.93;5.30;;;9.20;81.00;;;;;;5095392;28;20027;-80
2023/02/11 06:49:14;;;;;;;7.47;5.38;;;9.20;81.00;;;;;;5095849;28;20054;-81
2023/02/11 06:51:40;;;;;;;8.00;5.47;;;9.20;81.00;;;;;;5112938;28;20031;-80
2023/02/11 06:54:06;;;;;;;7.78;5.10;;;9.20;81.00;;;;;;5095661;28;20042;-80
2023/02/11 06:56:32;;;;;;;7.97;5.55;;;9.20;81.00;;;;;;5095697;28;20028;-81
2023/02/11 06:58:59;;;;;;;8.10;5.97;;;9.20;81.00;;;;;;5095805;28;20107;-80
2023/02/11 07:01:25;;;;;;;8.82;5.82;;;9.20;81.00;;;;;;5079429;28;20425;-81
2023/02/11 07:03:51;;;;;;;7.05;5.63;;;9.20;81.00;;;;;;5079036;28;20387;-81
2023/02/11 07:06:24;;;;;;;8.15;6.22;;;9.20;81.00;;;;;;5112523;28;20020;-81
2023/02/11 07:08:50;;;;;;;7.97;5.55;;;9.20;81.10;;;;;;5096203;28;20032;-80
2023/02/11 07:11:23;;;;;;;8.18;6.00;;;9.20;81.00;;;;;;5095669;28;20061;-81
2023/02/11 07:13:49;;;;;;;8.02;5.97;;;9.20;81.10;;;;;;5094809;28;20502;-80
2023/02/11 07:16:16;;;;;;;8.15;6.32;;;9.20;81.00;;;;;;5078593;28;20464;-81
2023/02/11 07:18:43;;;;;;;8.63;6.30;;;9.20;81.00;;;;;;5095470;28;20024;-81
2023/02/11 07:21:13;;;;;;;8.63;6.13;;;9.20;81.00;;;;;;5095383;28;20027;-79
2023/02/11 07:23:40;;;;;;;8.27;6.35;;;9.20;81.00;;;;;;5111799;28;20079;-82
2023/02/11 07:26:08;;;;;;;10.40;6.28;;;9.20;81.10;;;;;;5095138;28;20078;-81
2023/02/11 07:28:35;;;;;;;8.13;6.20;;;9.20;81.20;;;;;;5095128;28;20110;-79
2023/02/11 07:31:07;;;;;;;10.05;6.78;;;9.20;81.10;;;;;;5094742;28;20468;-80
2023/02/11 07:33:35;;;;;;;8.82;6.45;;;9.20;81.10;;;;;;5111931;28;20150;-81
2023/02/11 07:36:00;;;;;;;10.07;6.47;;;9.20;81.10;;;;;;5095734;28;20051;-81
2023/02/11 07:38:27;;;;;;;9.63;6.55;;;9.20;81.10;;;;;;5082534;28;20373;-79
2023/02/11 07:40:52;;;;;;;9.75;6.43;;;9.20;81.10;;;;;;5081931;28;20039;-83
2023/02/11 07:43:18;;;;;;;9.07;6.50;;;9.20;81.10;;;;;;5082233;28;20043;-82
2023/02/11 07:45:44;;;;;;;10.10;7.38;;;9.20;81.10;;;;;;5099194;28;20016;-82
2023/02/11 07:48:10;;;;;;;9.07;7.07;;;9.20;81.10;;;;;;5098467;28;20030;-80
2023/02/11 07:50:35;;;;;;;9.23;7.15;;;9.20;81.10;;;;;;5082169;28;20396;-79
2023/02/11 07:53:01;;;;;;;9.40;7.22;;;9.20;81.10;;;;;;5081761;28;20377;-79
2023/02/11 07:55:28;;;;;;;10.32;6.90;;;9.20;81.10;;;;;;5098654;28;20032;-81
2023/02/11 07:57:53;;;;;;;9.50;6.60;;;9.20;81.10;;;;;;5115659;28;20023;-81
2023/02/11 08:00:19;;;;;;;9.07;6.88;;;9.20;81.10;;;;;;5117104;28;20028;-81
2023/02/11 08:02:45;;;;;;;9.23;6.78;;;9.20;81.00;;;;;;5098413;28;20032;-81
2023/02/11 08:05:10;;;;;;;10.45;7.55;;;9.20;81.00;;;;;;5081250;28;20337;-79
2023/02/11 08:07:36;;;;;;;10.25;7.40;;;9.20;81.00;;;;;;5098119;28;20032;-81
2023/02/11 08:10:02;;;;;;;9.43;6.97;;;9.20;81.00;;;;;;5098253;28;20024;-79
2023/02/11 08:12:28;;;;;;;13.15;7.85;;;9.20;81.00;;;;;;5081257;28;20476;-81
2023/02/11 08:14:55;;;;;;;10.70;7.40;;;9.20;81.00;;;;;;5081598;28;20057;-80
2023/02/11 08:17:21;;;;;;;10.13;7.65;;;9.20;81.00;;;;;;5098479;28;20035;-80
2023/02/11 08:19:46;;;;;;;9.77;7.75;;;9.20;81.00;;;;;;5098463;28;20118;-80
2023/02/11 08:22:12;;;;;;;9.50;7.22;;;9.20;80.90;;;;;;5097455;28;20044;-80
2023/02/11 08:24:38;;;;;;;11.25;7.35;;;9.20;80.90;;;;;;5098258;28;20031;-80
2023/02/11 08:27:03;;;;;;;9.63;7.30;;;9.20;80.90;;;;;;5098311;28;20051;-81
2023/02/11 08:29:29;;;;;;;12.05;7.85;;;9.20;80.90;;;;;;5115112;28;20034;-81
2023/02/11 08:31:55;;;;;;;10.48;7.45;;;9.20;80.90;;;;;;5097750;28;20035;-80
2023/02/11 08:34:21;;;;;;;10.18;7.10;;;9.20;80.90;;;;;;5097698;28;20114;-81
2023/02/11 08:36:47;;;;;;;9.30;7.05;;;9.30;80.90;;;;;;5097930;28;20392;-80
2023/02/11 08:39:18;;;;;;;12.45;7.85;;;9.20;80.80;;;;;;5097467;28;20024;-79
2023/02/11 08:41:49;;;;;;;10.75;7.70;;;9.30;80.90;;;;;;5115542;28;20035;-80
2023/02/11 08:44:16;;;;;;;11.07;8.25;;;9.30;80.90;;;;;;5115066;28;20024;-81
2023/02/11 08:46:41;;;;;;;10.07;7.22;;;9.30;80.90;;;;;;5081337;28;20031;-81
2023/02/11 08:49:07;;;;;;;11.13;8.07;;;9.30;80.90;;;;;;5096611;28;20051;-80
2023/02/11 08:51:33;;;;;;;10.77;8.07;;;9.30;80.90;;;;;;5097853;28;20032;-79
2023/02/11 08:53:59;;;;;;;11.23;8.27;;;9.30;80.90;;;;;;5080980;28;20035;-80
2023/02/11 08:56:26;;;;;;;12.00;7.90;;;9.30;80.90;;;;;;5097776;28;20034;-81
2023/02/11 08:58:52;;;;;;;10.18;8.30;;;9.30;80.90;;;;;;5114520;28;20028;-80
2023/02/11 09:01:26;;;;;;;12.30;8.30;;;9.30;80.90;;;;;;5080869;28;20507;-79
2023/02/11 09:03:52;;;;;;;11.57;8.77;;;9.40;81.00;;;;;;5114497;28;20438;-81
2023/02/11 09:06:19;;;;;;;11.75;8.63;;;9.30;80.90;;;;;;5114274;28;20089;-80
2023/02/11 09:08:50;;;;;;;11.70;8.82;;;9.40;80.90;;;;;;5114127;28;20497;-79
2023/02/11 09:11:19;;;;;;;12.90;8.57;;;9.30;80.90;;;;;;5097838;28;20039;-81
2023/02/11 09:13:45;;;;;;;10.52;7.93;;;9.40;80.90;;;;;;5114445;28;20020;-79
2023/02/11 09:16:25;;;;;;;12.02;8.13;;;9.40;80.90;;;;;;5113819;28;20019;-81
2023/02/11 09:18:52;;;;;;;9.95;7.68;;;9.40;81.60;;;;;;5114889;28;20353;-80
2023/02/11 09:21:18;;;;;;;10.88;8.43;;;9.40;80.90;;;;;;5096922;28;20035;-81
2023/02/11 09:23:46;;;;;;;12.18;8.45;;;9.40;80.90;;;;;;5113393;28;20043;-81
2023/02/11 09:26:21;;;;;;;11.90;8.82;;;9.40;80.90;;;;;;5097907;28;20410;-81
2023/02/11 09:28:47;;;;;;;11.65;8.60;;;9.40;80.90;;;;;;5114064;28;20185;-80
2023/02/11 09:31:15;;;;;;;12.02;8.18;;;9.40;80.80;;;;;;5096797;28;20495;-80
2023/02/11 09:33:46;;;;;;;12.40;8.75;;;9.50;80.90;;;;;;5114790;28;20046;-80
2023/02/11 09:36:15;;;;;;;13.13;9.50;;;9.50;81.50;;;;;;5114082;28;20460;-80
2023/02/11 09:38:41;;;;;;;12.88;9.75;;;9.50;80.80;;;;;;5115119;28;20459;-80
2023/02/11 09:41:31;;;;;;;14.38;9.57;;;9.50;80.80;;;;;;5096639;28;20476;-80
2023/02/11 09:44:01;;;;;;;11.70;9.15;;;9.50;80.80;;;;;;5113973;28;20035;-80
2023/02/11 09:46:31;;;;;;;12.60;8.82;;;9.50;80.70;;;;;;5113818;28;20590;-80
2023/02/11 09:48:58;;;;;;;12.30;9.38;;;9.50;80.70;;;;;;5114573;28;20349;-80
2023/02/11 09:51:38;;;;;;;12.85;9.45;;;9.50;80.70;;;;;;5114402;28;20036;-80
2023/02/11 09:54:32;;;;;;;13.50;9.43;;;9.60;80.90;;;;;;5113634;28;20027;-80
2023/02/11 09:56:58;;;;;;;13.00;9.40;;;9.50;80.70;;;;;;5112786;28;20039;-80
2023/02/11 09:59:24;;;;;;;11.27;9.27;;;9.50;80.70;;;;;;5114187;28;20491;-81
2023/02/11 10:01:56;;;;;;;12.25;9.30;;;9.60;80.70;;;;;;5096088;28;20042;-80
2023/02/11 10:04:39;;;;;;;12.07;8.95;;;9.60;80.70;;;;;;5113493;28;20028;-82
2023/02/11 10:07:24;;;;;;;13.02;8.80;;;9.60;80.70;;;;;;5114419;28;20042;-81
2023/02/11 10:10:12;;;;;;;13.27;9.30;;;9.60;80.70;;;;;;5112922;28;20028;-84
2023/02/11 10:12:46;;;;;;;11.65;9.07;;;9.60;80.70;;;;;;5112588;28;20116;-79
2023/02/11 10:15:29;;;;;;;13.57;9.55;;;9.70;80.70;;;;;;5113617;28;20049;-84
2023/02/11 10:18:38;;;;;;;12.90;9.52;;;9.70;80.70;;;;;;5113039;28;20051;-82
2023/02/11 10:21:31;;;;;;;13.30;9.90;;;9.70;80.70;;;;;;5114125;28;20042;-84
2023/02/11 10:24:02;;;;;;;12.10;9.40;;;9.70;80.70;;;;;;5095947;28;20071;-81
2023/02/11 10:26:30;;;;;;;12.82;9.20;;;9.70;80.70;;;;;;5096069;28;20043;-82
2023/02/11 10:29:02;;;;;;;13.48;10.20;;;9.70;80.70;;;;;;5114798;28;20035;-83
2023/02/11 10:31:36;;;;;;;14.55;10.32;;;9.70;80.70;;;;;;5113201;28;20050;-80
2023/02/11 10:34:08;;;;;;;14.15;10.65;;;9.80;80.70;;;;;;5114970;28;20487;-80
2023/02/11 10:36:38;;;;;;;13.93;10.48;;;9.80;80.70;;;;;;5095883;28;20028;-83
2023/02/11 10:39:25;;;;;;;11.77;9.40;;;9.80;80.70;;;;;;5114023;28;20168;-82
2023/02/11 10:41:56;;;;;;;12.55;9.63;;;9.80;80.70;;;;;;5112925;28;20031;-83
2023/02/11 10:44:30;;;;;;;12.55;8.90;;;9.80;80.60;;;;;;5112734;28;20114;-81
2023/02/11 10:47:00;;;;;;;16.37;11.03;;;9.90;80.70;;;;;;5113990;28;20034;-81
2023/02/11 10:49:41;;;;;;;13.45;10.57;;;9.90;80.70;;;;;;5095420;28;20031;-80
2023/02/11 10:52:22;;;;;;;13.45;10.13;;;9.90;80.70;;;;;;5113212;28;20412;-81
2023/02/11 10:55:03;;;;;;;12.48;10.07;;;9.90;80.60;;;;;;5113900;28;20032;-81
2023/02/11 10:57:36;;;;;;;14.07;10.20;;;10.00;80.70;;;;;;5112602;28;20055;-81
2023/02/11 11:00:07;;;;;;;12.23;9.55;;;10.00;80.60;;;;;;5112843;28;20484;-81
2023/02/11 11:02:37;;;;;;;13.52;9.98;;;10.00;80.60;;;;;;5111848;28;20024;-79
2023/02/11 11:05:16;;;;;;;13.82;9.85;;;10.00;81.20;;;;;;5112217;28;20486;-80
2023/02/11 11:07:53;;;;;;;12.75;9.88;;;10.00;80.60;;;;;;5112222;28;20110;-81
2023/02/11 11:10:47;;;;;;;14.50;10.80;;;10.00;80.50;;;;;;5112134;28;20024;-79
2023/02/11 11:13:23;;;;;;;13.98;10.50;;;10.00;80.50;;;;;;5115361;28;20050;-81
2023/02/11 11:16:12;;;;;;;16.13;11.02;;;10.10;80.50;;;;;;5116196;28;20030;-83
2023/02/11 11:18:46;;;;;;;12.68;9.27;;;10.10;80.50;;;;;;5116432;28;20035;-81
2023/02/11 11:21:20;;;;;;;13.23;9.83;;;10.10;80.50;;;;;;5117046;28;20584;-81
2023/02/11 11:23:49;;;;;;;12.82;9.90;;;10.20;80.50;;;;;;5115814;28;20067;-84
2023/02/11 11:26:16;;;;;;;13.18;9.85;;;10.20;80.50;;;;;;5116349;28;20519;-80
2023/02/11 11:28:50;;;;;;;12.80;9.57;;;10.20;80.50;;;;;;5133164;27;20036;-80
2023/02/11 11:31:20;;;;;;;12.32;10.00;;;10.20;80.40;;;;;;5117372;28;20035;-81
2023/02/11 11:33:47;;;;;;;12.23;9.82;;;10.30;80.50;;;;;;5133192;27;20057;-80
2023/02/11 11:36:20;;;;;;;14.10;10.30;;;10.30;80.40;;;;;;5115754;28;20062;-80
2023/02/11 11:38:59;;;;;;;14.45;10.55;;;10.30;80.50;;;;;;5133566;27;20024;-81
2023/02/11 11:41:31;;;;;;;13.40;10.18;;;10.30;80.40;;;;;;5133616;27;20114;-83
2023/02/11 11:44:02;;;;;;;12.15;9.63;;;10.30;80.40;;;;;;5133730;27;20023;-83
2023/02/11 11:46:35;;;;;;;14.02;11.02;;;10.40;80.50;;;;;;5151434;27;20110;-81
2023/02/11 11:49:31;;;;;;;13.85;9.73;;;10.40;80.40;;;;;;5117228;28;20364;-82
2023/02/11 11:52:33;;;;;;;13.65;10.18;;;10.40;80.40;;;;;;5111351;28;20035;-82
2023/02/11 11:55:06;;;;;;;12.10;9.57;;;10.40;80.40;;;;;;5093924;28;20048;-82
2023/02/11 11:57:37;;;;;;;11.88;8.95;;;10.40;80.20;;;;;;5116054;28;20153;-82
2023/02/11 12:00:03;;;;;;;13.07;9.90;;;10.50;80.30;;;;;;5115594;28;20122;-81
2023/02/11 12:02:44;;;;;;;12.40;9.50;;;10.50;80.30;;;;;;5149327;27;20514;-83
2023/02/11 12:06:01;;;;;;;12.45;9.68;;;10.50;80.30;;;;;;5132983;27;20106;-82
2023/02/11 12:08:37;;;;;;;11.15;8.68;;;10.50;80.30;;;;;;5085559;28;20089;-82
2023/02/11 12:11:08;;;;;;;11.93;8.85;;;10.60;80.30;;;;;;5149683;27;20047;-81
2023/02/11 12:13:56;;;;;;;10.95;8.60;;;10.60;80.20;;;;;;5132778;27;20379;-82
2023/02/11 12:16:27;;;;;;;11.60;9.13;;;10.70;80.40;;;;;;5149736;27;20028;-81
2023/02/11 12:19:05;;;;;;;11.30;9.20;;;10.70;80.20;;;;;;5115591;28;20106;-82
2023/02/11 12:21:42;;;;;;;13.30;9.13;;;10.70;80.20;;;;;;5115206;28;20031;-82
2023/02/11 12:24:35;;;;;;;11.77;8.77;;;10.70;80.20;;;;;;5113803;28;20055;-82
2023/02/11 12:27:01;;;;;;;9.88;7.88;;;10.80;80.30;;;;;;5115463;28;20027;-81
2023/02/11 12:30:01;;;;;;;11.20;8.55;;;10.80;80.20;;;;;;5114979;28;20081;-80
2023/02/11 12:32:53;;;;;;;11.13;8.75;;;10.80;80.20;;;;;;5086746;28;20082;-81
2023/02/11 12:35:37;;;;;;;11.52;9.35;;;10.90;80.20;;;;;;5115754;28;20020;-79
2023/02/11 12:38:17;;;;;;;10.63;8.65;;;10.90;80.20;;;;;;5116192;28;20027;-80
2023/02/11 12:41:15;;;;;;;12.10;8.27;;;10.90;80.20;;;;;;5114979;28;20054;-81
2023/02/11 12:43:43;;;;;;;11.55;8.50;;;10.90;80.20;;;;;;5115490;28;20436;-80
2023/02/11 12:46:35;;;;;;;10.38;8.70;;;11.00;80.10;;;;;;5114633;28;20026;-81
2023/02/11 12:49:16;;;;;;;11.73;8.40;;;11.00;80.20;;;;;;5114925;28;20023;-81
2023/02/11 12:52:22;;;;;;;9.68;8.18;;;11.00;80.10;;;;;;5115746;28;20085;-80
2023/02/11 12:55:02;;;;;;;10.48;8.32;;;11.10;80.20;;;;;;5114529;28;20061;-81
2023/02/11 12:57:31;;;;;;;10.13;7.97;;;11.10;80.00;;;;;;5114834;28;20392;-80
2023/02/11 13:00:06;;;;;;;10.32;8.13;;;11.10;80.10;;;;;;5114220;28;20031;-83
2023/02/11 13:02:44;;;;;;;10.43;8.30;;;11.20;80.10;;;;;;5114647;28;20032;-81
2023/02/11 13:05:31;;;;;;;9.38;7.25;;;11.20;80.10;;;;;;5115843;28;20100;-80
2023/02/11 13:08:23;;;;;;;10.43;7.95;;;11.30;80.10;;;;;;5114416;28;20027;-81
2023/02/11 13:10:53;;;;;;;11.43;7.95;;;11.30;80.10;;;;;;5114977;28;20126;-81
2023/02/11 13:13:30;;;;;;;10.10;8.27;;;11.30;80.00;;;;;;5114052;28;20035;-81
2023/02/11 13:16:05;;;;;;;11.07;7.97;;;11.30;80.10;;;;;;5114333;28;20020;-81